Time;durP1;ratioP1;P1;durP2;ratioP2;P2;SDS_P1;SDS_P2;PMS_P1;PMS_P2;Temp;Humidity;BMP_temperature;BMP_pressure;BME280_temperature;BME280_humidity;BME280_pressure;Samples;Min_cycle;Max_cycle;Signal;HPM_P1;HPM_P2
2023/07/15 00:00:22;;;;;;;6.75;3.40;;;;;;;21.55;54.92;100819.84;7394142;19;20007;-62
2023/07/15 00:02:51;;;;;;;8.80;3.63;;;;;;;21.56;55.27;100813.47;7392198;19;20014;-62
2023/07/15 00:05:27;;;;;;;7.70;3.40;;;;;;;21.61;54.41;100813.75;7389743;19;20022;-62
2023/07/15 00:07:55;;;;;;;8.20;3.90;;;;;;;21.63;54.51;100813.53;7392912;19;20555;-63
2023/07/15 00:10:22;;;;;;;8.07;3.67;;;;;;;21.61;54.81;100802.13;7394248;19;20052;-62
2023/07/15 00:12:50;;;;;;;6.82;3.72;;;;;;;21.60;54.38;100803.16;7393776;19;20047;-64
2023/07/15 00:15:17;;;;;;;8.07;3.47;;;;;;;21.58;54.62;100797.94;7395124;19;20018;-64
2023/07/15 00:17:44;;;;;;;8.85;4.22;;;;;;;21.56;54.85;100796.44;7396105;19;20023;-65
2023/07/15 00:20:15;;;;;;;8.77;3.63;;;;;;;21.60;54.32;100795.91;7395014;19;20089;-64
2023/07/15 00:22:45;;;;;;;6.15;3.35;;;;;;;21.60;54.35;100790.50;7393922;19;20014;-62
2023/07/15 00:25:19;;;;;;;7.82;3.42;;;;;;;21.63;54.18;100786.59;7391966;19;20022;-63
2023/07/15 00:27:47;;;;;;;11.18;3.80;;;;;;;21.59;54.17;100788.81;7392868;19;20024;-63
2023/07/15 00:30:17;;;;;;;6.82;3.58;;;;;;;21.58;53.99;100776.38;7394522;19;20018;-63
2023/07/15 00:32:47;;;;;;;8.38;3.65;;;;;;;21.57;53.76;100780.09;7395452;19;20014;-63
2023/07/15 00:35:20;;;;;;;7.50;3.50;;;;;;;21.63;53.55;100786.59;7394277;19;20027;-62
2023/07/15 00:37:48;;;;;;;6.85;3.33;;;;;;;21.59;53.89;100780.72;7395425;19;20023;-63
2023/07/15 00:40:16;;;;;;;6.55;3.40;;;;;;;21.59;53.60;100769.13;7394471;19;20014;-63
2023/07/15 00:43:20;;;;;;;8.02;3.60;;;;;;;21.69;53.00;100771.56;7392440;19;20026;-61
2023/07/15 00:46:16;;;;;;;7.60;3.67;;;;;;;21.59;53.86;100769.94;7393623;19;20014;-62
2023/07/15 00:49:06;;;;;;;7.05;3.17;;;;;;;21.57;52.93;100760.41;7393143;19;20095;-63
2023/07/15 00:51:37;;;;;;;10.07;3.58;;;;;;;21.56;53.03;100766.78;7394445;19;20019;-62
2023/07/15 00:54:05;;;;;;;7.95;3.40;;;;;;;21.59;53.09;100761.84;7392979;19;20043;-63
2023/07/15 00:56:35;;;;;;;6.28;3.30;;;;;;;21.58;53.18;100746.72;7393464;19;20010;-63
2023/07/15 00:59:04;;;;;;;7.90;3.60;;;;;;;21.59;53.00;100750.25;7394540;19;20048;-63
2023/07/15 01:01:34;;;;;;;8.90;3.53;;;;;;;21.58;52.97;100740.50;7394508;19;20021;-63
2023/07/15 01:04:02;;;;;;;8.00;3.25;;;;;;;21.52;53.03;100739.41;7393182;19;20078;-63
2023/07/15 01:06:33;;;;;;;7.20;3.28;;;;;;;21.55;52.80;100738.16;7392612;19;20018;-63
2023/07/15 01:09:07;;;;;;;9.05;3.40;;;;;;;21.54;52.50;100723.03;7393591;19;20502;-63
2023/07/15 01:11:34;;;;;;;6.47;3.08;;;;;;;21.51;52.82;100726.91;7392671;19;20019;-63
2023/07/15 01:14:02;;;;;;;5.65;2.95;;;;;;;21.52;52.62;100717.84;7392387;19;20044;-63
2023/07/15 01:16:29;;;;;;;8.52;3.28;;;;;;;21.53;52.45;100710.59;7392990;19;20018;-63
2023/07/15 01:18:57;;;;;;;8.43;3.35;;;;;;;21.52;52.15;100712.44;7393832;19;20014;-63
2023/07/15 01:21:29;;;;;;;7.13;3.60;;;;;;;21.56;52.16;100716.44;7394032;19;20014;-64
2023/07/15 01:23:56;;;;;;;5.18;2.83;;;;;;;21.49;52.22;100717.38;7392360;19;20101;-66
2023/07/15 01:26:24;;;;;;;7.22;3.53;;;;;;;21.50;52.12;100713.66;7392485;19;20021;-64
2023/07/15 01:28:51;;;;;;;8.15;3.30;;;;;;;21.49;52.00;100715.50;7393569;19;20055;-64
2023/07/15 01:31:19;;;;;;;9.02;3.40;;;;;;;21.49;52.14;100698.50;7393435;19;20019;-61
2023/07/15 01:33:49;;;;;;;8.15;3.30;;;;;;;21.53;52.16;100705.19;7392900;19;20089;-62
2023/07/15 01:36:17;;;;;;;6.07;3.10;;;;;;;21.48;52.28;100691.41;7393153;19;20346;-62
2023/07/15 01:38:44;;;;;;;6.63;3.25;;;;;;;21.51;51.79;100693.75;7392937;19;20022;-63
2023/07/15 01:41:11;;;;;;;6.75;3.15;;;;;;;21.49;51.90;100696.63;7391289;19;20018;-63
2023/07/15 01:43:39;;;;;;;8.75;3.40;;;;;;;21.50;51.48;100694.78;7390749;19;20082;-63
2023/07/15 01:46:06;;;;;;;6.57;3.42;;;;;;;21.44;51.98;100682.88;7391380;19;20047;-64
2023/07/15 01:48:33;;;;;;;8.30;3.25;;;;;;;21.41;51.93;100681.41;7391251;19;20018;-62
2023/07/15 01:51:01;;;;;;;5.53;3.20;;;;;;;21.41;51.62;100677.88;7392359;19;20387;-64
2023/07/15 01:53:28;;;;;;;7.72;2.95;;;;;;;21.41;51.82;100676.00;7391509;19;20051;-64
2023/07/15 01:55:55;;;;;;;6.53;3.00;;;;;;;21.39;51.47;100671.81;7389717;19;20018;-62
2023/07/15 01:58:23;;;;;;;7.93;3.30;;;;;;;21.44;51.35;100676.66;7392374;19;20022;-62
2023/07/15 02:00:50;;;;;;;5.88;2.63;;;;;;;21.42;51.70;100674.16;7392498;19;20352;-62
2023/07/15 02:03:17;;;;;;;5.80;2.95;;;;;;;21.37;51.76;100663.09;7391591;19;20474;-62
2023/07/15 02:05:45;;;;;;;8.27;3.05;;;;;;;21.31;51.86;100663.81;7391381;19;20025;-62
2023/07/15 02:08:13;;;;;;;6.82;3.25;;;;;;;21.30;52.12;100665.66;7390685;19;20037;-62
2023/07/15 02:10:40;;;;;;;8.52;3.28;;;;;;;21.30;51.96;100660.28;7391896;19;20015;-63
2023/07/15 02:13:09;;;;;;;6.38;3.00;;;;;;;21.30;52.39;100651.38;7391150;19;20022;-62
2023/07/15 02:15:38;;;;;;;8.10;3.45;;;;;;;21.27;52.15;100644.47;7391305;19;20041;-62
2023/07/15 02:18:05;;;;;;;6.72;3.13;;;;;;;21.22;52.45;100643.38;7391768;19;20014;-62
2023/07/15 02:20:32;;;;;;;7.53;3.20;;;;;;;21.18;52.47;100637.53;7391984;19;20171;-63
2023/07/15 02:22:59;;;;;;;7.72;3.00;;;;;;;21.16;52.46;100635.00;7391155;19;20026;-61
2023/07/15 02:25:27;;;;;;;7.85;3.22;;;;;;;21.14;52.31;100625.44;7390509;19;20011;-62
2023/07/15 02:27:54;;;;;;;8.52;3.03;;;;;;;21.17;52.62;100633.97;7389954;19;20018;-62
2023/07/15 02:30:21;;;;;;;5.53;3.20;;;;;;;21.17;52.64;100635.84;7391426;19;20025;-62
2023/07/15 02:32:48;;;;;;;6.95;3.30;;;;;;;21.16;52.52;100631.47;7390113;19;20509;-61
2023/07/15 02:35:16;;;;;;;6.55;3.08;;;;;;;21.12;52.75;100633.69;7390934;19;20043;-61
2023/07/15 02:37:43;;;;;;;7.57;3.55;;;;;;;21.11;52.20;100633.91;7391914;19;20074;-62
2023/07/15 02:40:11;;;;;;;6.25;3.13;;;;;;;21.09;52.19;100625.16;7390915;19;20019;-63
2023/07/15 02:42:38;;;;;;;10.85;3.53;;;;;;;21.12;52.41;100636.38;7389498;19;20014;-62
2023/07/15 02:45:09;;;;;;;6.43;2.95;;;;;;;21.04;52.83;100623.03;7388918;19;20044;-65
2023/07/15 02:47:39;;;;;;;7.32;3.22;;;;;;;21.00;53.11;100618.19;7390209;19;20076;-64
2023/07/15 02:50:08;;;;;;;7.18;3.42;;;;;;;21.02;52.75;100619.66;7390239;19;20037;-63
2023/07/15 02:52:36;;;;;;;8.25;3.30;;;;;;;;;;7390610;19;20015;-63
2023/07/15 02:55:06;;;;;;;7.20;3.20;;;;;;;21.07;52.76;100616.44;7387991;19;20039;-64
2023/07/15 02:57:34;;;;;;;7.18;3.10;;;;;;;21.01;52.72;100611.78;7390673;19;20370;-65
2023/07/15 03:00:09;;;;;;;9.10;3.22;;;;;;;20.98;52.71;100610.28;7390249;19;20018;-64
2023/07/15 03:02:36;;;;;;;7.85;3.28;;;;;;;20.99;53.09;100614.66;7390153;19;20011;-63
2023/07/15 03:05:05;;;;;;;8.65;3.25;;;;;;;20.93;52.99;100602.75;7390004;19;20372;-61
2023/07/15 03:07:33;;;;;;;9.65;3.30;;;;;;;20.90;53.27;100597.75;7396864;19;20023;-62
2023/07/15 03:10:04;;;;;;;6.18;3.28;;;;;;;20.92;53.00;100600.28;7397798;19;20488;-62
2023/07/15 03:12:32;;;;;;;6.68;3.15;;;;;;;20.90;52.78;100604.97;7398138;19;20051;-62
2023/07/15 03:14:59;;;;;;;8.00;3.33;;;;;;;20.89;53.14;100608.72;7392603;19;20031;-60
2023/07/15 03:17:26;;;;;;;8.27;3.08;;;;;;;20.86;53.60;100606.38;7396988;19;20018;-60
2023/07/15 03:19:54;;;;;;;7.05;2.90;;;;;;;20.85;53.66;100612.78;7397806;19;20023;-62
2023/07/15 03:22:21;;;;;;;7.95;3.40;;;;;;;20.81;53.15;100598.03;7398018;19;20011;-60
2023/07/15 03:24:49;;;;;;;6.68;3.67;;;;;;;20.81;53.21;100600.72;7394288;19;20098;-62
2023/07/15 03:27:16;;;;;;;4.72;2.50;;;;;;;20.79;53.09;100600.06;7395700;19;20022;-61
2023/07/15 03:29:44;;;;;;;7.55;3.15;;;;;;;20.84;53.48;100601.19;7397657;19;20032;-61
2023/07/15 03:32:11;;;;;;;6.22;3.13;;;;;;;20.85;53.47;100593.94;7397304;19;20033;-63
2023/07/15 03:34:38;;;;;;;7.05;2.90;;;;;;;20.88;53.17;100605.19;7398311;19;20037;-63
2023/07/15 03:37:05;;;;;;;6.22;3.17;;;;;;;20.86;53.30;100609.91;7396712;19;20015;-63
2023/07/15 03:39:33;;;;;;;8.80;3.13;;;;;;;20.87;53.41;100599.97;7397168;19;20014;-62
2023/07/15 03:42:00;;;;;;;6.20;3.20;;;;;;;20.83;53.37;100599.50;7394694;19;20470;-62
2023/07/15 03:44:29;;;;;;;6.95;2.78;;;;;;;20.80;53.14;100601.75;7394466;19;20026;-62
2023/07/15 03:46:57;;;;;;;8.50;3.10;;;;;;;20.83;53.49;100594.09;7395759;19;20018;-63
2023/07/15 03:49:24;;;;;;;7.72;2.88;;;;;;;20.85;53.77;100596.63;7396247;19;20021;-63
2023/07/15 03:51:52;;;;;;;5.93;2.78;;;;;;;20.84;53.07;100590.41;7396680;19;20026;-63
2023/07/15 03:54:19;;;;;;;6.07;3.00;;;;;;;20.76;53.44;100593.19;7394615;19;20018;-63
2023/07/15 03:56:49;;;;;;;6.60;2.78;;;;;;;20.80;53.19;100588.28;7395985;19;20018;-63
2023/07/15 03:59:16;;;;;;;7.07;3.10;;;;;;;20.78;53.20;100587.63;7394107;19;20482;-63
2023/07/15 04:01:43;;;;;;;5.82;2.70;;;;;;;20.78;53.84;100593.00;7396471;19;20543;-64
2023/07/15 04:04:11;;;;;;;5.07;2.80;;;;;;;20.70;53.59;100585.84;7394575;19;20022;-61
2023/07/15 04:06:39;;;;;;;6.10;2.80;;;;;;;20.75;53.30;100587.97;7395625;19;20018;-62
2023/07/15 04:09:06;;;;;;;6.35;3.05;;;;;;;20.74;53.74;100592.53;7393771;19;20078;-61
2023/07/15 04:11:34;;;;;;;8.48;2.97;;;;;;;20.72;53.71;100586.50;7395933;19;20797;-59
2023/07/15 04:14:01;;;;;;;5.68;2.92;;;;;;;20.71;53.81;100590.19;7393951;19;20015;-60
2023/07/15 04:16:29;;;;;;;6.78;2.78;;;;;;;20.76;53.30;100598.59;7395186;19;20019;-60
2023/07/15 04:18:56;;;;;;;5.40;2.65;;;;;;;20.77;53.46;100599.41;7396054;19;20029;-59
2023/07/15 04:21:23;;;;;;;8.32;3.00;;;;;;;20.78;53.31;100604.59;7394740;19;20039;-60
2023/07/15 04:23:54;;;;;;;6.43;2.60;;;;;;;20.83;53.23;100595.97;7395143;19;20018;-59
2023/07/15 04:26:26;;;;;;;5.30;2.53;;;;;;;20.82;53.06;100597.00;7394705;19;20086;-57
2023/07/15 04:28:57;;;;;;;8.95;2.83;;;;;;;20.83;52.96;100610.25;7391869;19;20018;-57
2023/07/15 04:31:24;;;;;;;8.43;2.90;;;;;;;20.85;53.24;100602.03;7395344;19;20027;-56
2023/07/15 04:33:52;;;;;;;5.25;2.63;;;;;;;20.88;53.53;100601.66;7397396;19;20018;-56
2023/07/15 04:36:21;;;;;;;6.78;2.50;;;;;;;20.86;53.39;100598.31;7394775;19;20029;-56
2023/07/15 04:38:48;;;;;;;5.22;2.67;;;;;;;20.89;53.29;100603.31;7393783;19;20480;-56
2023/07/15 04:41:16;;;;;;;6.10;2.80;;;;;;;20.88;52.97;100594.41;7396066;19;20018;-56
2023/07/15 04:43:43;;;;;;;5.55;2.67;;;;;;;20.85;52.91;100594.78;7394504;19;20031;-58
2023/07/15 04:46:11;;;;;;;6.75;2.55;;;;;;;20.90;53.27;100591.53;7394680;19;20021;-57
2023/07/15 04:48:39;;;;;;;5.78;2.50;;;;;;;20.92;53.03;100589.50;7393374;19;20031;-57
2023/07/15 04:51:06;;;;;;;7.35;2.70;;;;;;;20.90;52.89;100588.84;7394831;19;20495;-58
2023/07/15 04:53:34;;;;;;;5.90;2.78;;;;;;;20.86;53.34;100577.59;7394264;19;20022;-58
2023/07/15 04:56:02;;;;;;;6.97;2.67;;;;;;;20.89;53.93;100584.47;7394435;19;20018;-58
2023/07/15 04:58:29;;;;;;;5.28;2.50;;;;;;;20.88;53.74;100582.81;7394278;19;20018;-58
2023/07/15 05:00:57;;;;;;;5.25;2.55;;;;;;;20.87;53.18;100587.38;7394782;19;20172;-58
2023/07/15 05:03:25;;;;;;;5.07;2.55;;;;;;;20.91;53.11;100593.22;7394600;19;20030;-58
2023/07/15 05:05:52;;;;;;;7.47;2.72;;;;;;;20.94;53.07;100585.59;7393852;19;20090;-58
2023/07/15 05:08:22;;;;;;;8.88;2.70;;;;;;;20.98;52.87;100590.59;7393689;19;20044;-58
2023/07/15 05:10:49;;;;;;;7.25;2.63;;;;;;;21.00;52.57;100585.88;7394162;19;20521;-58
2023/07/15 05:13:17;;;;;;;7.90;2.78;;;;;;;;;;7394007;19;20044;-58
2023/07/15 05:15:44;;;;;;;4.68;2.55;;;;;;;21.06;52.80;100588.69;7393282;19;20476;-58
2023/07/15 05:18:12;;;;;;;5.00;2.25;;;;;;;21.09;52.65;100582.06;7394036;19;20044;-58
2023/07/15 05:20:39;;;;;;;5.00;2.42;;;;;;;21.11;52.86;100597.03;7392162;19;20027;-59
2023/07/15 05:23:06;;;;;;;6.35;2.78;;;;;;;21.27;52.28;100592.47;7393657;19;20018;-60
2023/07/15 05:25:34;;;;;;;5.05;2.40;;;;;;;21.34;52.05;100588.03;7390534;19;20515;-60
2023/07/15 05:28:01;;;;;;;4.07;2.30;;;;;;;21.33;52.22;100594.44;7391607;19;20026;-63
2023/07/15 05:30:28;;;;;;;7.05;2.50;;;;;;;21.30;52.57;100589.41;7392438;19;20031;-59
2023/07/15 05:32:56;;;;;;;6.03;2.50;;;;;;;21.28;52.54;100591.44;7394053;19;20502;-59
2023/07/15 05:35:23;;;;;;;6.35;2.50;;;;;;;21.27;52.42;100592.47;7389299;19;20539;-59
2023/07/15 05:37:50;;;;;;;6.18;2.45;;;;;;;21.28;52.59;100594.13;7393282;19;20051;-59
2023/07/15 05:40:18;;;;;;;7.35;2.40;;;;;;;21.26;52.87;100605.09;7393341;19;20044;-58
2023/07/15 05:42:45;;;;;;;5.68;2.15;;;;;;;21.26;52.46;100604.28;7391537;19;20265;-58
2023/07/15 05:45:13;;;;;;;5.30;2.53;;;;;;;21.26;52.74;100609.66;7390634;19;20018;-58
2023/07/15 05:47:40;;;;;;;6.82;2.80;;;;;;;21.31;52.87;100618.00;7392169;19;20495;-58
2023/07/15 05:50:08;;;;;;;5.95;2.70;;;;;;;21.33;52.55;100615.97;7393604;19;20043;-58
2023/07/15 05:52:36;;;;;;;9.02;2.53;;;;;;;21.35;52.54;100616.63;7393079;19;20078;-58
2023/07/15 05:55:05;;;;;;;6.90;2.40;;;;;;;21.37;52.88;100620.00;7390795;19;20081;-59
2023/07/15 05:57:32;;;;;;;4.68;2.20;;;;;;;21.39;52.98;100620.63;7392722;19;20018;-59
2023/07/15 06:00:00;;;;;;;4.18;2.20;;;;;;;21.44;53.13;100623.59;7392471;19;20077;-58
2023/07/15 06:02:28;;;;;;;5.00;2.30;;;;;;;21.49;52.65;100618.50;7392553;19;20403;-58
2023/07/15 06:04:55;;;;;;;8.32;2.60;;;;;;;21.55;52.58;100620.41;7390463;19;20059;-59
2023/07/15 06:07:23;;;;;;;6.32;2.35;;;;;;;21.60;52.61;100618.00;7392182;19;20014;-58
2023/07/15 06:09:54;;;;;;;6.07;2.60;;;;;;;21.64;52.70;100619.31;7392266;19;20014;-58
2023/07/15 06:12:21;;;;;;;6.80;2.58;;;;;;;21.64;52.75;100613.09;7393089;19;20026;-58
2023/07/15 06:14:48;;;;;;;6.68;2.40;;;;;;;21.72;53.18;100615.66;7388385;19;20491;-58
2023/07/15 06:17:16;;;;;;;5.22;2.40;;;;;;;21.80;52.75;100612.03;7390593;19;20527;-57
2023/07/15 06:19:43;;;;;;;4.53;2.35;;;;;;;21.88;52.76;100614.59;7391823;19;20025;-59
2023/07/15 06:22:10;;;;;;;5.55;2.25;;;;;;;21.93;52.49;100611.31;7391935;19;20382;-56
2023/07/15 06:24:38;;;;;;;3.97;2.05;;;;;;;21.98;52.41;100611.56;7390198;19;20043;-57
2023/07/15 06:27:05;;;;;;;5.50;2.40;;;;;;;22.01;52.61;100609.34;7391833;19;20026;-59
2023/07/15 06:29:33;;;;;;;4.15;2.30;;;;;;;22.07;52.32;100608.59;7389864;19;20015;-56
2023/07/15 06:32:01;;;;;;;4.47;2.25;;;;;;;22.14;51.85;100612.22;7391626;19;20019;-56
2023/07/15 06:34:28;;;;;;;5.40;2.20;;;;;;;22.25;51.17;100610.03;7393924;19;20496;-58
2023/07/15 06:36:55;;;;;;;5.53;2.50;;;;;;;22.31;51.26;100599.28;7391093;19;20015;-58
2023/07/15 06:39:23;;;;;;;4.80;1.98;;;;;;;22.51;50.73;100607.59;7389108;19;20353;-58
2023/07/15 06:41:51;;;;;;;3.40;1.85;;;;;;;22.66;51.32;100604.78;7389808;19;20078;-60
2023/07/15 06:44:18;;;;;;;5.50;2.28;;;;;;;22.59;51.29;100607.44;7390172;19;20516;-59
2023/07/15 06:46:45;;;;;;;6.38;2.38;;;;;;;22.60;50.95;100610.97;7388899;19;20011;-59
2023/07/15 06:49:13;;;;;;;6.05;2.38;;;;;;;22.58;51.22;100594.94;7390269;19;20093;-59
2023/07/15 06:51:40;;;;;;;5.95;2.35;;;;;;;22.63;51.37;100592.53;7391095;19;20047;-59
2023/07/15 06:54:08;;;;;;;4.55;2.15;;;;;;;22.73;51.09;100602.13;7390292;19;20057;-57
2023/07/15 06:56:35;;;;;;;5.80;2.20;;;;;;;22.77;51.57;100604.22;7389985;19;20019;-56
2023/07/15 06:59:02;;;;;;;4.10;1.90;;;;;;;22.80;51.47;100603.84;7390970;19;20029;-56
2023/07/15 07:01:30;;;;;;;7.53;2.38;;;;;;;22.83;50.87;100598.06;7389158;19;20016;-57
2023/07/15 07:03:57;;;;;;;6.75;2.35;;;;;;;22.93;51.08;100610.41;7388594;19;20523;-56
2023/07/15 07:06:25;;;;;;;3.63;1.85;;;;;;;23.04;50.23;100605.28;7389923;19;20019;-58
2023/07/15 07:08:54;;;;;;;9.15;2.20;;;;;;;23.14;50.03;100609.50;7389219;19;20023;-59
2023/07/15 07:11:21;;;;;;;5.75;1.90;;;;;;;23.16;49.75;100594.78;7390398;19;20029;-59
2023/07/15 07:13:49;;;;;;;7.18;2.10;;;;;;;23.15;50.12;100589.56;7387163;19;20486;-59
2023/07/15 07:16:16;;;;;;;3.28;1.80;;;;;;;23.15;50.09;100590.38;7389989;19;20018;-59
2023/07/15 07:18:44;;;;;;;5.65;2.00;;;;;;;23.21;49.36;100586.88;7389925;19;20018;-56
2023/07/15 07:21:12;;;;;;;5.57;2.50;;;;;;;23.27;48.95;100586.06;7389071;19;20033;-59
2023/07/15 07:23:40;;;;;;;4.70;2.05;;;;;;;23.34;49.14;100584.25;7389952;19;20018;-58
2023/07/15 07:26:07;;;;;;;6.50;1.95;;;;;;;23.39;48.56;100578.25;7389840;19;20015;-58
2023/07/15 07:28:40;;;;;;;4.32;2.20;;;;;;;23.46;48.75;100579.09;7389075;19;20029;-58
2023/07/15 07:31:09;;;;;;;4.45;2.08;;;;;;;23.53;48.33;100579.94;7390257;19;20015;-58
2023/07/15 07:33:38;;;;;;;4.63;2.00;;;;;;;23.60;48.39;100583.53;7390593;19;20018;-58
2023/07/15 07:36:05;;;;;;;5.25;1.73;;;;;;;23.62;48.24;100577.06;7389119;19;20011;-59
2023/07/15 07:38:34;;;;;;;7.38;2.30;;;;;;;23.58;48.80;100573.94;7389766;19;20023;-58
2023/07/15 07:41:09;;;;;;;4.05;1.90;;;;;;;23.62;49.21;100574.38;7389456;19;20019;-59
2023/07/15 07:43:37;;;;;;;5.65;2.00;;;;;;;23.65;48.42;100571.25;7389646;19;20044;-59
2023/07/15 07:46:12;;;;;;;6.32;2.00;;;;;;;23.78;48.47;100563.22;7387607;19;20043;-59
2023/07/15 07:48:39;;;;;;;5.70;1.92;;;;;;;23.86;48.50;100567.63;7386108;19;20053;-59
2023/07/15 07:51:07;;;;;;;5.68;1.98;;;;;;;23.89;48.72;100578.00;7393788;19;20033;-60
2023/07/15 07:53:34;;;;;;;4.35;1.90;;;;;;;23.97;48.10;100577.84;7396219;19;20015;-59
2023/07/15 07:56:02;;;;;;;5.55;1.90;;;;;;;24.01;48.26;100589.91;7395584;19;20022;-58
2023/07/15 07:58:29;;;;;;;5.13;1.80;;;;;;;24.10;48.53;100583.25;7396680;19;20019;-58
2023/07/15 08:00:56;;;;;;;3.95;1.75;;;;;;;24.10;48.09;100575.13;7396122;19;20019;-58
2023/07/15 08:03:23;;;;;;;5.57;2.30;;;;;;;24.11;48.29;100579.50;7394081;19;20052;-59
2023/07/15 08:05:51;;;;;;;7.00;1.85;;;;;;;24.18;48.29;100588.47;7395685;19;20018;-59
2023/07/15 08:08:19;;;;;;;4.80;1.73;;;;;;;24.22;47.23;100591.59;7395178;19;20010;-58
2023/07/15 08:10:46;;;;;;;3.40;2.20;;;;;;;24.24;47.82;100582.25;7395846;19;20018;-59
2023/07/15 08:13:13;;;;;;;5.57;1.90;;;;;;;24.37;47.23;100581.41;7395276;19;20019;-59
2023/07/15 08:15:41;;;;;;;5.50;2.03;;;;;;;24.42;47.29;100576.25;7395259;19;20063;-58
2023/07/15 08:18:08;;;;;;;7.07;2.30;;;;;;;24.47;47.17;100586.44;7395819;19;20035;-58
2023/07/15 08:20:38;;;;;;;7.75;2.00;;;;;;;24.48;46.90;100579.97;7395988;19;20078;-58
2023/07/15 08:23:05;;;;;;;6.47;2.28;;;;;;;24.50;47.20;100577.91;7394478;19;20018;-58
2023/07/15 08:25:32;;;;;;;5.68;2.10;;;;;;;24.58;46.93;100590.41;7392078;19;20086;-58
2023/07/15 08:28:00;;;;;;;3.83;1.92;;;;;;;24.51;47.00;100590.41;7395061;19;20022;-58
2023/07/15 08:30:27;;;;;;;4.65;1.90;;;;;;;24.61;46.48;100588.09;7392800;19;20026;-59
2023/07/15 08:32:54;;;;;;;7.55;2.25;;;;;;;24.62;45.63;100587.06;7396539;19;20085;-59
2023/07/15 08:35:22;;;;;;;4.28;2.10;;;;;;;24.61;46.01;100590.78;7392212;19;20021;-59
2023/07/15 08:37:49;;;;;;;5.60;2.10;;;;;;;24.74;46.23;100601.63;7395700;19;20039;-59
2023/07/15 08:40:23;;;;;;;3.55;2.03;;;;;;;24.84;45.84;100608.50;7393303;19;20013;-59
2023/07/15 08:42:51;;;;;;;4.00;1.70;;;;;;;24.89;45.53;100609.53;7395022;19;20023;-59
2023/07/15 08:45:19;;;;;;;5.18;1.75;;;;;;;24.90;45.26;100618.50;7392124;19;20082;-59
2023/07/15 08:47:47;;;;;;;4.53;1.92;;;;;;;24.89;44.81;100612.25;7393556;19;20015;-59
2023/07/15 08:50:17;;;;;;;3.55;1.92;;;;;;;24.86;45.67;100609.97;7392658;19;20029;-59
2023/07/15 08:52:45;;;;;;;8.30;2.28;;;;;;;24.96;45.53;100614.97;7394202;19;20011;-60
2023/07/15 08:55:13;;;;;;;3.78;1.80;;;;;;;24.99;45.71;100618.09;7390832;19;20028;-59
2023/07/15 08:57:40;;;;;;;7.82;2.38;;;;;;;25.04;45.62;100620.97;7394751;19;20030;-59
2023/07/15 09:00:09;;;;;;;5.72;2.05;;;;;;;25.05;45.88;100609.09;7395412;19;20159;-59
2023/07/15 09:02:38;;;;;;;6.60;1.90;;;;;;;25.05;46.59;100613.69;7392646;19;20031;-59
2023/07/15 09:05:07;;;;;;;5.20;1.92;;;;;;;25.19;46.17;100625.38;7392691;19;20022;-59
2023/07/15 09:07:56;;;;;;;6.13;1.83;;;;;;;25.42;45.56;100611.31;7392713;19;20487;-59
2023/07/15 09:10:28;;;;;;;6.22;2.10;;;;;;;25.46;44.76;100605.25;7392167;19;20015;-59
2023/07/15 09:12:56;;;;;;;5.93;2.17;;;;;;;25.59;44.55;100606.25;7393216;19;20060;-59
2023/07/15 09:15:24;;;;;;;3.08;1.80;;;;;;;25.58;44.79;100601.88;7391039;19;20018;-59
2023/07/15 09:17:59;;;;;;;6.68;1.95;;;;;;;25.63;45.55;100594.72;7393838;19;20018;-59
2023/07/15 09:20:27;;;;;;;4.05;1.90;;;;;;;25.71;45.78;100602.63;7393939;19;20026;-58
2023/07/15 09:22:57;;;;;;;4.22;1.75;;;;;;;25.65;44.86;100597.25;7394050;19;20022;-59
2023/07/15 09:25:25;;;;;;;6.28;2.13;;;;;;;25.65;44.96;100605.38;7391003;19;20026;-59
2023/07/15 09:27:53;;;;;;;4.60;1.88;;;;;;;25.56;44.92;100602.06;7392314;19;20084;-59
2023/07/15 09:30:21;;;;;;;6.65;2.13;;;;;;;25.58;45.40;100599.16;7392038;19;20533;-59
2023/07/15 09:32:48;;;;;;;4.10;1.70;;;;;;;25.60;45.46;100599.75;7393709;19;20017;-59
2023/07/15 09:35:17;;;;;;;6.82;2.00;;;;;;;25.65;45.33;100605.38;7390524;19;20014;-59
2023/07/15 09:37:49;;;;;;;4.65;1.90;;;;;;;25.69;44.44;100601.19;7391381;19;20523;-58
2023/07/15 09:40:17;;;;;;;4.22;1.80;;;;;;;25.71;45.04;100604.50;7393155;19;20100;-59
2023/07/15 09:42:51;;;;;;;3.85;1.80;;;;;;;25.73;44.37;100605.97;7390855;19;20035;-59
2023/07/15 09:45:39;;;;;;;5.72;2.22;;;;;;;25.83;44.22;100610.94;7390870;19;20052;-59
2023/07/15 09:48:16;;;;;;;6.50;2.05;;;;;;;25.84;44.83;100612.63;7392353;19;20039;-59
2023/07/15 09:50:43;;;;;;;5.32;1.98;;;;;;;25.90;44.72;100608.19;7391714;19;20014;-58
2023/07/15 09:53:11;;;;;;;5.47;1.80;;;;;;;26.00;44.83;100617.53;7395090;19;20021;-59
2023/07/15 09:55:40;;;;;;;5.07;1.83;;;;;;;26.07;45.34;100613.97;7391806;19;20381;-59
2023/07/15 09:58:21;;;;;;;3.22;1.65;;;;;;;26.06;45.46;100621.25;7393065;19;20029;-59
2023/07/15 10:01:02;;;;;;;4.10;1.77;;;;;;;26.39;44.99;100622.91;7392378;19;20019;-59
2023/07/15 10:03:54;;;;;;;8.32;1.92;;;;;;;26.59;43.38;100623.59;7392325;19;20334;-59
2023/07/15 10:06:22;;;;;;;3.22;1.73;;;;;;;26.58;43.66;100630.09;7391537;19;20329;-59
2023/07/15 10:08:51;;;;;;;3.65;1.80;;;;;;;26.76;43.49;100625.78;7392223;19;20018;-59
2023/07/15 10:11:19;;;;;;;6.20;1.75;;;;;;;26.81;43.24;100628.66;7391875;19;20018;-59
2023/07/15 10:13:49;;;;;;;3.10;1.80;;;;;;;27.00;42.90;100621.38;7391241;19;20093;-59
2023/07/15 10:16:18;;;;;;;3.78;1.63;;;;;;;27.21;42.66;100629.97;7390932;19;20015;-57
2023/07/15 10:18:46;;;;;;;4.60;1.80;;;;;;;27.30;41.65;100644.09;7390547;19;20023;-57
2023/07/15 10:21:14;;;;;;;7.70;1.90;;;;;;;26.92;42.99;100628.75;7391376;19;20523;-57
2023/07/15 10:23:42;;;;;;;8.82;1.80;;;;;;;26.84;43.07;100634.47;7391519;19;20035;-59
2023/07/15 10:26:10;;;;;;;5.45;1.73;;;;;;;26.92;43.57;100631.47;7391227;19;20029;-59
2023/07/15 10:28:39;;;;;;;3.35;1.80;;;;;;;26.91;43.53;100639.88;7391861;19;20018;-59
2023/07/15 10:31:09;;;;;;;7.50;1.90;;;;;;;27.17;42.04;100638.81;7391790;19;20018;-59
2023/07/15 10:33:54;;;;;;;3.08;1.60;;;;;;;27.34;42.88;100639.03;7392998;19;20021;-59
2023/07/15 10:36:42;;;;;;;4.03;1.50;;;;;;;27.48;41.42;100647.88;7390753;19;20040;-59
2023/07/15 10:39:10;;;;;;;2.05;1.60;;;;;;;27.33;42.58;100648.25;7389362;19;20018;-59
2023/07/15 10:41:53;;;;;;;4.20;1.83;;;;;;;27.22;42.70;100652.56;7389252;19;20049;-59
2023/07/15 10:44:25;;;;;;;4.13;1.73;;;;;;;27.37;41.68;100649.47;7390334;19;20014;-59
2023/07/15 10:47:03;;;;;;;3.00;1.70;;;;;;;27.57;41.47;100652.78;7389315;19;20039;-59
2023/07/15 10:49:31;;;;;;;3.03;1.63;;;;;;;27.69;40.46;100655.56;7388450;19;20064;-59
2023/07/15 10:51:59;;;;;;;6.53;1.67;;;;;;;27.70;40.71;100643.59;7391192;19;20085;-59
2023/07/15 10:54:29;;;;;;;5.88;1.90;;;;;;;27.67;41.19;100644.09;7388501;19;20026;-59
2023/07/15 10:56:57;;;;;;;3.28;1.42;;;;;;;27.61;42.06;100651.25;7391206;19;20011;-59
2023/07/15 10:59:33;;;;;;;5.13;1.60;;;;;;;27.79;41.45;100646.91;7389587;19;20107;-59
2023/07/15 11:02:00;;;;;;;3.70;1.77;;;;;;;27.93;40.61;100645.63;7390193;19;20563;-59
2023/07/15 11:04:28;;;;;;;3.58;1.58;;;;;;;28.01;41.15;100655.38;7389019;19;20019;-59
2023/07/15 11:07:01;;;;;;;4.75;1.52;;;;;;;28.10;41.10;100665.72;7390062;19;20018;-59
2023/07/15 11:09:29;;;;;;;4.05;1.65;;;;;;;28.01;41.12;100655.38;7390115;19;20018;-58
2023/07/15 11:11:56;;;;;;;4.45;1.80;;;;;;;27.77;41.29;100676.22;7390400;19;20015;-59
2023/07/15 11:14:30;;;;;;;4.13;1.70;;;;;;;27.52;41.60;100674.41;7389441;19;20018;-57
2023/07/15 11:16:59;;;;;;;4.93;1.70;;;;;;;27.49;42.40;100674.84;7389764;19;20034;-59
2023/07/15 11:19:28;;;;;;;6.53;2.05;;;;;;;27.40;42.20;100679.75;7390826;19;20015;-59
2023/07/15 11:21:59;;;;;;;2.75;1.75;;;;;;;27.33;42.33;100675.44;7390638;19;20015;-57
2023/07/15 11:24:29;;;;;;;2.75;1.58;;;;;;;27.28;42.27;100678.81;7388200;19;20026;-57
2023/07/15 11:27:00;;;;;;;5.50;1.70;;;;;;;27.42;42.51;100664.03;7395768;19;20500;-56
2023/07/15 11:29:28;;;;;;;4.53;1.98;;;;;;;27.46;42.46;100684.28;7396720;19;20025;-57
2023/07/15 11:31:57;;;;;;;5.00;1.80;;;;;;;27.37;43.05;100676.66;7397810;19;20031;-57
2023/07/15 11:34:26;;;;;;;2.85;1.60;;;;;;;27.27;42.96;100695.38;7399567;19;20018;-57